createdAt,value
2022-12-18T00:02:16.175Z,37.45
2022-12-18T00:04:43.031Z,37.72
2022-12-18T00:07:10.206Z,38.30
2022-12-18T00:09:39.468Z,36.45
2022-12-18T00:14:45.535Z,35.53
2022-12-18T00:17:12.553Z,35.33
2022-12-18T00:19:39.332Z,34.15
2022-12-18T00:22:07.462Z,35.78
2022-12-18T00:24:34.287Z,35.03
2022-12-18T00:27:01.024Z,35.72
2022-12-18T00:29:27.952Z,34.70
2022-12-18T00:31:54.949Z,34.10
2022-12-18T00:34:21.765Z,31.30
2022-12-18T00:36:49.255Z,35.75
2022-12-18T00:39:16.086Z,34.30
2022-12-18T00:42:01.796Z,34.80
2022-12-18T00:44:28.595Z,33.40
2022-12-18T00:46:55.350Z,35.20
2022-12-18T00:49:22.474Z,34.35
2022-12-18T00:51:49.625Z,34.17
2022-12-18T00:54:17.573Z,35.85
2022-12-18T00:56:49.011Z,34.13
2022-12-18T00:59:17.911Z,36.35
2022-12-18T01:01:45.943Z,34.67
2022-12-18T01:04:13.235Z,32.88
2022-12-18T01:06:40.015Z,35.15
2022-12-18T01:09:07.024Z,36.92
2022-12-18T01:11:33.974Z,33.88
2022-12-18T01:14:00.755Z,33.85
2022-12-18T01:16:28.056Z,32.40
2022-12-18T01:18:56.060Z,33.83
2022-12-18T01:21:24.805Z,34.92
2022-12-18T01:23:56.377Z,35.58
2022-12-18T01:26:23.677Z,33.25
2022-12-18T01:28:50.503Z,33.15
2022-12-18T01:31:26.566Z,34.25
2022-12-18T01:33:54.278Z,33.45
2022-12-18T01:36:26.484Z,33.67
2022-12-18T01:38:54.505Z,32.88
2022-12-18T01:41:25.005Z,31.95
2022-12-18T01:43:58.107Z,32.55
2022-12-18T01:46:28.786Z,31.77
2022-12-18T01:49:00.389Z,32.97
2022-12-18T01:51:28.812Z,31.17
2022-12-18T01:53:55.815Z,31.92
2022-12-18T01:56:23.288Z,29.98
2022-12-18T01:59:07.149Z,30.92
2022-12-18T02:01:34.623Z,29.95
2022-12-18T02:04:22.113Z,29.88
2022-12-18T02:06:54.753Z,30.08
2022-12-18T02:09:30.414Z,29.98
2022-12-18T02:12:11.755Z,29.47
2022-12-18T02:14:56.614Z,30.20
2022-12-18T02:17:31.574Z,28.92
2022-12-18T02:20:01.061Z,29.55
2022-12-18T02:22:47.254Z,30.45
2022-12-18T02:25:21.395Z,30.65
2022-12-18T02:27:50.340Z,30.05
2022-12-18T02:30:18.482Z,30.15
2022-12-18T02:32:51.133Z,30.33
2022-12-18T02:35:25.073Z,30.17
2022-12-18T02:37:59.177Z,31.05
2022-12-18T02:40:29.432Z,31.75
2022-12-18T02:42:56.380Z,30.15
2022-12-18T02:45:23.196Z,30.10
2022-12-18T02:47:51.684Z,31.33
2022-12-18T02:50:27.495Z,30.10
2022-12-18T02:52:54.249Z,30.58
2022-12-18T02:55:33.783Z,30.42
2022-12-18T02:58:19.512Z,31.05
2022-12-18T03:01:08.545Z,31.15
2022-12-18T03:03:47.852Z,29.42
2022-12-18T03:06:33.172Z,29.60
2022-12-18T03:09:05.824Z,31.08
2022-12-18T03:11:58.024Z,30.70
2022-12-18T03:14:27.141Z,29.05
2022-12-18T03:17:00.039Z,28.95
2022-12-18T03:19:30.644Z,29.77
2022-12-18T03:21:59.988Z,30.38
2022-12-18T03:24:31.063Z,28.08
2022-12-18T03:27:03.778Z,30.20
2022-12-18T03:29:38.927Z,32.50
2022-12-18T03:32:31.912Z,30.67
2022-12-18T03:35:03.883Z,30.55
2022-12-18T03:37:34.272Z,28.05
2022-12-18T03:40:01.115Z,27.83
2022-12-18T03:42:41.462Z,28.45
2022-12-18T03:45:37.699Z,27.63
2022-12-18T03:48:09.962Z,29.45
2022-12-18T03:50:55.113Z,30.48
2022-12-18T03:53:34.928Z,27.90
2022-12-18T03:56:03.223Z,26.52
2022-12-18T03:58:33.028Z,27.98
2022-12-18T04:01:03.402Z,28.50
2022-12-18T04:03:32.974Z,27.73
2022-12-18T04:06:02.152Z,27.55
2022-12-18T04:08:30.152Z,28.13
2022-12-18T04:10:57.013Z,29.35
2022-12-18T04:13:30.860Z,29.40
2022-12-18T04:15:57.957Z,28.98
2022-12-18T04:18:24.881Z,27.98
2022-12-18T04:20:51.683Z,28.42
2022-12-18T04:23:18.513Z,27.92
2022-12-18T04:25:45.293Z,28.48
2022-12-18T04:28:12.113Z,27.85
2022-12-18T04:30:39.297Z,27.92
2022-12-18T04:33:12.880Z,26.63
2022-12-18T04:35:40.845Z,28.23
2022-12-18T04:38:09.516Z,27.90
2022-12-18T04:40:37.201Z,28.48
2022-12-18T04:43:05.001Z,28.83
2022-12-18T04:45:32.972Z,29.02
2022-12-18T04:48:00.688Z,29.58
2022-12-18T04:50:28.043Z,29.75
2022-12-18T04:52:54.903Z,29.73
2022-12-18T04:55:21.911Z,29.00
2022-12-18T04:57:48.772Z,28.60
2022-12-18T05:00:15.893Z,30.17
2022-12-18T05:02:42.842Z,29.38
2022-12-18T05:05:10.293Z,28.50
2022-12-18T05:07:37.115Z,28.33
2022-12-18T05:10:08.970Z,29.30
2022-12-18T05:12:57.315Z,29.42
2022-12-18T05:15:24.129Z,29.98
2022-12-18T05:17:50.904Z,29.15
2022-12-18T05:20:19.294Z,30.45
2022-12-18T05:22:46.233Z,30.15
2022-12-18T05:25:13.045Z,28.02
2022-12-18T05:27:39.960Z,30.63
2022-12-18T05:30:07.413Z,30.95
2022-12-18T05:32:34.273Z,31.83
2022-12-18T05:35:01.112Z,31.25
2022-12-18T05:37:27.933Z,30.90
2022-12-18T05:39:54.748Z,31.77
2022-12-18T05:42:21.562Z,33.35
2022-12-18T05:44:48.602Z,32.70
2022-12-18T05:47:15.433Z,31.63
2022-12-18T05:49:42.333Z,31.05
2022-12-18T05:52:09.252Z,33.05
2022-12-18T05:54:36.304Z,30.63
2022-12-18T05:57:03.221Z,31.73
2022-12-18T05:59:30.024Z,31.10
2022-12-18T06:01:57.094Z,32.42
2022-12-18T06:04:23.962Z,32.28
2022-12-18T06:06:50.713Z,31.92
2022-12-18T06:09:17.582Z,31.05
2022-12-18T06:11:44.464Z,32.30
2022-12-18T06:14:11.267Z,29.65
2022-12-18T06:16:38.195Z,33.67
2022-12-18T06:19:06.691Z,32.58
2022-12-18T06:21:33.768Z,33.40
2022-12-18T06:24:01.300Z,35.80
2022-12-18T06:26:28.745Z,33.63
2022-12-18T06:28:55.902Z,32.60
2022-12-18T06:31:22.798Z,32.10
2022-12-18T06:33:49.668Z,32.78
2022-12-18T06:36:17.727Z,32.65
2022-12-18T06:38:45.402Z,32.00
2022-12-18T06:41:22.638Z,33.10
2022-12-18T06:43:49.682Z,36.17
2022-12-18T06:46:16.566Z,35.00
2022-12-18T06:48:43.388Z,36.58
2022-12-18T06:51:10.214Z,38.03
2022-12-18T06:53:37.215Z,36.20
2022-12-18T06:56:09.914Z,34.85
2022-12-18T06:58:38.041Z,34.90
2022-12-18T07:01:07.284Z,37.58
2022-12-18T07:03:34.122Z,31.33
2022-12-18T07:06:01.014Z,31.05
2022-12-18T07:08:29.586Z,29.33
2022-12-18T07:10:56.647Z,29.42
2022-12-18T07:13:23.912Z,28.98
2022-12-18T07:15:50.841Z,32.70
2022-12-18T07:18:17.652Z,33.35
2022-12-18T07:20:45.352Z,36.20
2022-12-18T07:23:13.105Z,32.60
2022-12-18T07:25:40.598Z,33.10
2022-12-18T07:28:08.263Z,30.98
2022-12-18T07:30:39.495Z,31.27
2022-12-18T07:33:06.363Z,29.67
2022-12-18T07:35:39.059Z,29.90
2022-12-18T07:38:06.122Z,29.75
2022-12-18T07:40:32.912Z,29.45
2022-12-18T07:42:59.762Z,31.17
2022-12-18T07:45:26.643Z,28.70
2022-12-18T07:47:53.463Z,29.23
2022-12-18T07:50:20.295Z,29.75
2022-12-18T07:52:47.713Z,28.52
2022-12-18T07:55:14.633Z,28.17
2022-12-18T07:57:50.769Z,28.33
2022-12-18T08:00:18.994Z,30.65
2022-12-18T08:02:46.081Z,30.42
2022-12-18T08:05:13.095Z,30.45
2022-12-18T08:07:39.975Z,29.63
2022-12-18T08:10:07.703Z,28.33
2022-12-18T08:12:34.504Z,29.13
2022-12-18T08:15:01.951Z,29.55
2022-12-18T08:17:28.873Z,28.33
2022-12-18T08:19:55.635Z,29.17
2022-12-18T08:22:22.433Z,30.25
2022-12-18T08:24:49.232Z,29.67
2022-12-18T08:27:31.483Z,29.52
2022-12-18T08:29:58.902Z,30.88
2022-12-18T08:32:27.604Z,29.48
2022-12-18T08:34:54.865Z,29.35
2022-12-18T08:37:21.719Z,28.52
2022-12-18T08:39:48.508Z,29.90
2022-12-18T08:42:33.756Z,29.23
2022-12-18T08:45:00.615Z,27.63
2022-12-18T08:47:27.413Z,27.08
2022-12-18T08:49:54.315Z,28.33
2022-12-18T08:52:21.184Z,27.13
2022-12-18T08:54:48.024Z,28.42
2022-12-18T08:57:14.894Z,28.05
2022-12-18T08:59:41.674Z,26.83
2022-12-18T09:02:11.845Z,27.23
2022-12-18T09:04:39.008Z,26.45
2022-12-18T09:07:05.774Z,27.08
2022-12-18T09:09:32.644Z,25.73
2022-12-18T09:11:59.422Z,25.58
2022-12-18T09:14:26.174Z,26.77
2022-12-18T09:16:53.127Z,25.50
2022-12-18T09:19:19.912Z,26.38
2022-12-18T09:21:48.470Z,24.20
2022-12-18T09:24:16.522Z,26.90
2022-12-18T09:26:46.866Z,26.48
2022-12-18T09:29:15.634Z,23.30
2022-12-18T09:31:43.595Z,24.05
2022-12-18T09:34:10.390Z,23.23
2022-12-18T09:36:37.294Z,22.48
2022-12-18T09:39:08.251Z,21.42
2022-12-18T09:41:38.486Z,22.85
2022-12-18T09:44:24.562Z,24.48
2022-12-18T09:46:58.542Z,24.17
2022-12-18T09:49:30.775Z,22.40
2022-12-18T09:52:05.183Z,24.30
2022-12-18T09:54:45.450Z,30.85
2022-12-18T09:57:17.635Z,30.35
2022-12-18T09:59:51.795Z,31.45
2022-12-18T10:02:26.849Z,30.58
2022-12-18T10:05:18.307Z,30.17
2022-12-18T10:08:30.993Z,29.50
2022-12-18T10:11:05.075Z,30.33
2022-12-18T10:13:48.514Z,30.40
2022-12-18T10:16:37.083Z,29.52
2022-12-18T10:19:29.105Z,28.33
2022-12-18T10:22:13.813Z,31.40
2022-12-18T10:24:55.174Z,29.65
2022-12-18T10:27:28.003Z,27.38
2022-12-18T10:29:55.152Z,29.92
2022-12-18T10:32:26.002Z,30.40
2022-12-18T10:35:00.104Z,30.92
2022-12-18T10:37:30.048Z,33.08
2022-12-18T10:40:21.936Z,33.13
2022-12-18T10:43:05.641Z,32.17
2022-12-18T10:45:32.603Z,30.65
2022-12-18T10:48:00.102Z,34.03
2022-12-18T10:51:08.748Z,35.35
2022-12-18T10:53:31.285Z,35.22
2022-12-18T10:56:04.701Z,36.33
2022-12-18T10:58:35.734Z,33.83
2022-12-18T11:01:04.714Z,34.83
2022-12-18T11:03:39.323Z,35.92
2022-12-18T11:06:15.303Z,35.55
2022-12-18T11:08:45.099Z,39.20
2022-12-18T11:11:23.459Z,38.28
2022-12-18T11:14:05.326Z,37.50
2022-12-18T11:17:03.208Z,35.13
2022-12-18T11:19:38.814Z,37.67
2022-12-18T11:22:21.992Z,38.22
2022-12-18T11:25:30.018Z,37.65
2022-12-18T11:27:55.302Z,37.83
2022-12-18T11:30:36.453Z,36.10
2022-12-18T11:33:20.462Z,38.88
2022-12-18T11:35:54.832Z,36.30
2022-12-18T11:38:33.374Z,36.45
2022-12-18T11:41:18.722Z,35.25
2022-12-18T11:43:54.152Z,32.97
2022-12-18T11:46:43.097Z,30.70
2022-12-18T11:49:26.792Z,31.48
2022-12-18T11:52:04.721Z,31.40
2022-12-18T11:54:31.593Z,32.80
2022-12-18T11:57:30.589Z,33.47
2022-12-18T12:00:06.103Z,26.67
2022-12-18T12:03:03.492Z,28.13
2022-12-18T12:05:46.822Z,28.55
2022-12-18T12:08:32.939Z,26.17
2022-12-18T12:11:20.590Z,29.05
2022-12-18T12:14:08.561Z,27.77
2022-12-18T12:16:56.441Z,27.33
2022-12-18T12:19:47.241Z,27.60
2022-12-18T12:22:30.523Z,32.40
2022-12-18T12:25:15.504Z,34.35
2022-12-18T12:28:03.993Z,34.33
2022-12-18T12:31:01.486Z,29.23
2022-12-18T12:33:48.324Z,31.23
2022-12-18T12:36:38.233Z,33.60
2022-12-18T12:39:14.912Z,32.65
2022-12-18T12:42:04.882Z,32.03
2022-12-18T12:44:42.202Z,35.03
2022-12-18T12:47:20.442Z,33.20
2022-12-18T12:49:51.585Z,32.03
2022-12-18T12:52:38.801Z,31.70
2022-12-18T12:57:50.083Z,34.05
2022-12-18T13:00:25.197Z,32.05
2022-12-18T13:03:35.206Z,32.35
2022-12-18T13:06:11.046Z,33.47
2022-12-18T13:09:00.164Z,30.00
2022-12-18T13:12:00.350Z,31.30
2022-12-18T13:14:35.012Z,30.92
2022-12-18T13:17:30.437Z,31.15
2022-12-18T13:20:17.165Z,34.17
2022-12-18T13:22:49.475Z,35.65
2022-12-18T13:25:37.366Z,34.55
2022-12-18T13:28:13.724Z,31.42
2022-12-18T13:30:57.698Z,35.05
2022-12-18T13:33:25.041Z,31.50
2022-12-18T13:35:51.888Z,32.83
2022-12-18T13:38:38.174Z,30.13
2022-12-18T13:41:20.063Z,34.70
2022-12-18T13:43:49.483Z,31.95
2022-12-18T13:46:44.922Z,30.48
2022-12-18T13:49:14.497Z,32.33
2022-12-18T13:51:50.624Z,33.13
2022-12-18T13:54:37.266Z,38.42
2022-12-18T13:57:07.543Z,37.35
2022-12-18T13:59:38.153Z,34.30
2022-12-18T14:02:16.880Z,35.67
2022-12-18T14:04:47.663Z,33.97
2022-12-18T14:07:17.366Z,34.67
2022-12-18T14:09:52.278Z,35.05
2022-12-18T14:12:42.717Z,34.55
2022-12-18T14:15:32.819Z,37.22
2022-12-18T14:18:03.108Z,40.17
2022-12-18T14:20:33.693Z,37.90
2022-12-18T14:23:01.474Z,34.70
2022-12-18T14:25:30.941Z,37.85
2022-12-18T14:28:09.879Z,39.63
2022-12-18T14:30:39.439Z,37.45
2022-12-18T14:33:09.196Z,39.67
2022-12-18T14:35:39.224Z,38.83
2022-12-18T14:38:22.386Z,39.33
2022-12-18T14:40:56.094Z,38.20
2022-12-18T14:43:23.592Z,37.05
2022-12-18T14:45:51.576Z,38.78
2022-12-18T14:48:37.217Z,36.75
2022-12-18T14:51:24.512Z,36.78
2022-12-18T14:54:18.173Z,34.47
2022-12-18T14:56:52.293Z,37.55
2022-12-18T14:59:27.513Z,37.50
2022-12-18T15:02:04.077Z,38.47
2022-12-18T15:04:45.122Z,41.15
2022-12-18T15:07:23.308Z,38.10
2022-12-18T15:10:08.764Z,39.05
2022-12-18T15:12:50.052Z,38.17
2022-12-18T15:15:37.987Z,33.15
2022-12-18T15:18:24.496Z,32.03
2022-12-18T15:20:56.292Z,37.10
2022-12-18T15:23:45.019Z,35.33
2022-12-18T15:26:14.325Z,31.02
2022-12-18T15:29:04.367Z,32.47
2022-12-18T15:31:36.007Z,34.25
2022-12-18T15:34:21.825Z,34.22
2022-12-18T15:36:48.894Z,32.15
2022-12-18T15:39:15.776Z,34.60
2022-12-18T15:42:02.589Z,33.10
2022-12-18T15:44:30.744Z,43.83
2022-12-18T15:46:59.281Z,47.38
2022-12-18T15:49:26.460Z,52.70
2022-12-18T15:51:57.798Z,50.60
2022-12-18T15:54:43.290Z,51.15
2022-12-18T15:57:24.307Z,54.25
2022-12-18T15:59:53.995Z,48.72
2022-12-18T16:02:24.054Z,50.70
2022-12-18T16:04:55.233Z,53.78
2022-12-18T16:07:24.933Z,49.30
2022-12-18T16:09:53.134Z,50.88
2022-12-18T16:12:25.952Z,53.25
2022-12-18T16:14:52.868Z,52.40
2022-12-18T16:17:20.538Z,52.53
2022-12-18T16:19:47.420Z,54.75
2022-12-18T16:22:22.116Z,53.72
2022-12-18T16:24:49.468Z,53.45
2022-12-18T16:27:16.345Z,60.28
2022-12-18T16:29:43.862Z,51.13
2022-12-18T16:32:15.443Z,50.63
2022-12-18T16:34:43.311Z,55.10
2022-12-18T16:37:14.004Z,52.75
2022-12-18T16:39:42.788Z,55.58
2022-12-18T16:42:21.290Z,58.53
2022-12-18T16:44:50.126Z,55.15
2022-12-18T16:47:17.537Z,52.95
2022-12-18T16:49:51.901Z,52.42
2022-12-18T16:52:19.567Z,54.10
2022-12-18T16:54:47.947Z,55.65
2022-12-18T16:57:19.583Z,60.20
2022-12-18T16:59:48.382Z,61.67
2022-12-18T17:02:26.269Z,54.22
2022-12-18T17:04:58.267Z,51.55
2022-12-18T17:07:26.078Z,51.38
2022-12-18T17:09:54.376Z,52.25
2022-12-18T17:12:22.430Z,50.55
2022-12-18T17:14:51.446Z,38.92
2022-12-18T17:17:21.486Z,41.05
2022-12-18T17:19:50.988Z,39.55
2022-12-18T17:22:18.231Z,40.40
2022-12-18T17:24:46.114Z,42.17
2022-12-18T17:27:14.412Z,41.38
2022-12-18T17:29:47.393Z,40.08
2022-12-18T17:32:18.314Z,37.33
2022-12-18T17:34:46.301Z,34.22
2022-12-18T17:37:16.671Z,31.13
2022-12-18T17:39:43.659Z,31.80
2022-12-18T17:42:14.949Z,30.48
2022-12-18T17:44:43.102Z,32.28
2022-12-18T17:47:12.355Z,33.03
2022-12-18T17:49:42.122Z,31.63
2022-12-18T17:52:09.712Z,31.27
2022-12-18T17:54:44.516Z,32.17
2022-12-18T17:57:12.354Z,32.90
2022-12-18T17:59:39.358Z,34.60
2022-12-18T18:02:06.593Z,31.92
2022-12-18T18:04:33.957Z,31.80
2022-12-18T18:07:00.820Z,33.60
2022-12-18T18:09:27.782Z,31.38
2022-12-18T18:12:13.067Z,31.02
2022-12-18T18:14:40.415Z,31.23
2022-12-18T18:17:07.365Z,35.75
2022-12-18T18:19:34.443Z,36.13
2022-12-18T18:22:02.193Z,37.63
2022-12-18T18:24:30.205Z,39.40
2022-12-18T18:26:59.676Z,36.83
2022-12-18T18:29:29.039Z,36.33
2022-12-18T18:31:57.080Z,35.03
2022-12-18T18:34:26.792Z,35.03
2022-12-18T18:36:53.884Z,34.00
2022-12-18T18:39:21.279Z,38.85
2022-12-18T18:41:48.726Z,38.95
2022-12-18T18:44:17.375Z,37.05
2022-12-18T18:46:45.129Z,35.83
2022-12-18T18:49:13.831Z,36.67
2022-12-18T18:51:41.492Z,37.97
2022-12-18T18:54:09.172Z,36.42
2022-12-18T18:59:24.993Z,38.60
2022-12-18T19:01:59.206Z,41.65
2022-12-18T19:04:26.254Z,38.67
2022-12-18T19:06:53.115Z,36.13
2022-12-18T19:09:21.061Z,35.15
2022-12-18T19:12:06.454Z,36.83
2022-12-18T19:14:33.413Z,32.97
2022-12-18T19:17:00.512Z,32.67
2022-12-18T19:19:28.499Z,35.00
2022-12-18T19:21:55.452Z,35.97
2022-12-18T19:24:22.589Z,36.22
2022-12-18T19:26:49.661Z,34.90
2022-12-18T19:29:16.445Z,36.45
2022-12-18T19:31:43.413Z,36.53
2022-12-18T19:34:10.679Z,38.05
2022-12-18T19:36:40.198Z,38.90
2022-12-18T19:39:16.504Z,37.25
2022-12-18T19:41:44.313Z,40.03
2022-12-18T19:44:13.853Z,40.67
2022-12-18T19:46:42.526Z,37.95
2022-12-18T19:49:11.068Z,37.22
2022-12-18T19:51:38.360Z,38.38
2022-12-18T19:54:05.656Z,38.85
2022-12-18T19:56:35.149Z,35.03
2022-12-18T19:59:03.730Z,34.97
2022-12-18T20:01:30.755Z,35.40
2022-12-18T20:03:58.958Z,34.33
2022-12-18T20:06:48.822Z,37.15
2022-12-18T20:09:16.589Z,39.50
2022-12-18T20:11:43.485Z,37.45
2022-12-18T20:14:12.247Z,36.03
2022-12-18T20:16:39.468Z,37.65
2022-12-18T20:19:08.003Z,34.83
2022-12-18T20:21:36.138Z,36.88
2022-12-18T20:24:03.228Z,35.47
2022-12-18T20:26:30.135Z,36.05
2022-12-18T20:28:57.060Z,34.95
2022-12-18T20:31:24.570Z,34.78
2022-12-18T20:33:53.305Z,34.70
2022-12-18T20:36:25.840Z,35.15
2022-12-18T20:38:59.166Z,34.92
2022-12-18T20:41:33.507Z,34.28
2022-12-18T20:44:05.466Z,33.53
2022-12-18T20:46:34.414Z,31.15
2022-12-18T20:49:01.317Z,33.15
2022-12-18T20:51:29.293Z,33.33
2022-12-18T20:53:56.576Z,33.60
2022-12-18T20:56:23.685Z,30.83
2022-12-18T20:58:50.915Z,30.80
2022-12-18T21:01:24.050Z,31.17
2022-12-18T21:03:51.619Z,32.88
2022-12-18T21:06:20.514Z,31.77
2022-12-18T21:08:48.249Z,34.55
2022-12-18T21:11:34.897Z,31.83
2022-12-18T21:14:25.930Z,31.73
2022-12-18T21:16:56.971Z,34.40
2022-12-18T21:19:27.228Z,31.20
2022-12-18T21:21:55.859Z,33.03
2022-12-18T21:24:23.543Z,36.22
2022-12-18T21:26:50.653Z,33.33
2022-12-18T21:29:24.364Z,35.35
2022-12-18T21:31:54.001Z,34.22
2022-12-18T21:34:23.309Z,33.78
2022-12-18T21:36:50.324Z,33.55
2022-12-18T21:39:17.384Z,31.05
2022-12-18T21:42:06.020Z,32.38
2022-12-18T21:44:36.154Z,34.95
2022-12-18T21:47:22.070Z,34.43
2022-12-18T21:49:54.026Z,33.97
2022-12-18T21:52:31.378Z,34.50
2022-12-18T21:55:08.418Z,33.45
2022-12-18T21:57:37.458Z,36.30
2022-12-18T22:00:05.902Z,33.30
2022-12-18T22:02:32.830Z,33.30
2022-12-18T22:05:00.019Z,31.17
2022-12-18T22:07:29.100Z,31.00
2022-12-18T22:09:55.889Z,32.65
2022-12-18T22:12:43.186Z,31.88
2022-12-18T22:15:21.479Z,32.63
2022-12-18T22:17:54.137Z,33.55
2022-12-18T22:20:26.896Z,33.85
2022-12-18T22:22:53.753Z,32.85
2022-12-18T22:25:20.525Z,34.15
2022-12-18T22:28:07.309Z,31.25
2022-12-18T22:33:33.865Z,32.23
2022-12-18T22:36:07.796Z,30.77
2022-12-18T22:38:34.617Z,32.85
2022-12-18T22:41:01.498Z,33.45
2022-12-18T22:43:28.427Z,34.45
2022-12-18T22:45:55.491Z,33.38
2022-12-18T22:48:22.497Z,33.65
2022-12-18T22:50:50.166Z,31.70
2022-12-18T22:53:19.843Z,33.00
2022-12-18T22:55:46.657Z,33.20
2022-12-18T22:58:13.445Z,29.60
2022-12-18T23:00:40.822Z,34.28
2022-12-18T23:03:07.892Z,33.55
2022-12-18T23:05:34.744Z,33.42
2022-12-18T23:08:01.546Z,33.50
2022-12-18T23:10:28.627Z,33.22
2022-12-18T23:12:55.479Z,33.88
2022-12-18T23:15:27.657Z,32.78
2022-12-18T23:17:56.117Z,34.65
2022-12-18T23:20:23.017Z,35.00
2022-12-18T23:22:49.780Z,33.83
2022-12-18T23:25:16.705Z,34.78
2022-12-18T23:27:43.519Z,33.78
2022-12-18T23:30:10.957Z,34.35
2022-12-18T23:32:37.859Z,33.55
2022-12-18T23:35:05.217Z,33.33
2022-12-18T23:37:57.527Z,34.60
2022-12-18T23:40:20.778Z,34.95
2022-12-18T23:42:47.578Z,35.38
2022-12-18T23:45:18.115Z,37.13
2022-12-18T23:47:45.165Z,35.00
2022-12-18T23:50:14.757Z,40.97
2022-12-18T23:52:41.537Z,40.03
2022-12-18T23:55:08.788Z,37.13
2022-12-18T23:57:35.599Z,37.53
